Time,TemperatureF,DewpointF,PressureIn,WindDirection,WindDirectionDegrees,WindSpeedMPH,WindSpeedGustMPH,Humidity,HourlyPrecipIn,Conditions,Clouds,dailyrainin,SolarRadiationWatts/m^2,SoftwareType,DateUTC
2013-01-20 00:22:00,10.0,7.0,-100.00,North,-999,-999.0,5.0,84,0.00,,,-99.99,0.000000,,2013-01-20 07:22:00,
2013-01-20 00:32:00,8.0,5.0,-100.00,North,-999,-999.0,3.0,85,0.00,,,-99.99,0.000000,,2013-01-20 07:32:00,
2013-01-20 00:42:00,7.0,4.0,-100.00,North,-999,-999.0,4.0,87,0.00,,,-99.99,0.000000,,2013-01-20 07:42:00,
2013-01-20 00:52:00,8.0,5.0,-100.00,North,-999,-999.0,4.0,90,0.00,,,-99.99,0.000000,,2013-01-20 07:52:00,
2013-01-20 01:02:00,8.0,5.0,-100.00,North,-999,-999.0,4.0,90,0.00,,,-99.99,0.000000,,2013-01-20 08:02:00,
2013-01-20 01:12:00,4.0,2.0,-100.00,North,-999,-999.0,5.0,88,0.00,,,-99.99,0.000000,,2013-01-20 08:12:00,
2013-01-20 01:21:00,4.0,3.0,-100.00,North,-999,-999.0,4.0,92,0.00,,,-99.99,0.000000,,2013-01-20 08:21:00,
2013-01-20 01:32:00,5.0,3.0,-100.00,North,-999,-999.0,3.0,89,0.00,,,-99.99,0.000000,,2013-01-20 08:32:00,
2013-01-20 01:42:00,4.0,2.0,-100.00,North,-999,-999.0,0.0,90,0.00,,,-99.99,0.000000,,2013-01-20 08:42:00,
2013-01-20 01:52:00,4.0,1.0,-100.00,North,-999,-999.0,4.0,88,0.00,,,-99.99,0.000000,,2013-01-20 08:52:00,
2013-01-20 02:02:00,3.0,0.0,-100.00,North,-999,-999.0,4.0,89,0.00,,,-99.99,0.000000,,2013-01-20 09:02:00,
2013-01-20 02:12:00,2.0,0.0,-100.00,North,-999,-999.0,4.0,89,0.00,,,-99.99,0.000000,,2013-01-20 09:12:00,
2013-01-20 02:22:00,2.0,0.0,-100.00,North,-999,-999.0,4.0,88,0.00,,,-99.99,0.000000,,2013-01-20 09:22:00,
2013-01-20 02:33:00,1.0,-2.0,-100.00,North,-999,-999.0,3.0,87,0.00,,,-99.99,0.000000,,2013-01-20 09:33:00,
2013-01-20 02:42:00,3.0,1.0,-100.00,North,-999,-999.0,3.0,90,0.00,,,-99.99,0.000000,,2013-01-20 09:42:00,
2013-01-20 02:52:00,3.0,0.0,-100.00,North,-999,-999.0,3.0,88,0.00,,,-99.99,0.000000,,2013-01-20 09:52:00,
2013-01-20 03:02:00,4.0,1.0,-100.00,North,-999,-999.0,2.0,89,0.00,,,-99.99,0.000000,,2013-01-20 10:02:00,
2013-01-20 03:11:00,3.0,1.0,-100.00,North,-999,-999.0,3.0,89,0.00,,,-99.99,0.000000,,2013-01-20 10:11:00,
2013-01-20 03:22:00,2.0,0.0,-100.00,North,-999,-999.0,3.0,87,0.00,,,-99.99,0.000000,,2013-01-20 10:22:00,
2013-01-20 03:32:00,2.0,-1.0,-100.00,North,-999,-999.0,2.0,88,0.00,,,-99.99,0.000000,,2013-01-20 10:32:00,
2013-01-20 03:42:00,3.0,0.0,-100.00,North,-999,-999.0,2.0,89,0.00,,,-99.99,0.000000,,2013-01-20 10:42:00,
2013-01-20 03:50:00,4.0,1.0,-100.00,North,-999,-999.0,3.0,89,0.00,,,-99.99,0.000000,,2013-01-20 10:50:00,
2013-01-20 03:52:00,3.0,0.0,-100.00,North,-999,-999.0,2.0,87,0.00,,,-99.99,0.000000,,2013-01-20 10:52:00,
2013-01-20 04:02:00,3.0,1.0,-100.00,North,-999,-999.0,4.0,89,0.00,,,-99.99,0.000000,,2013-01-20 11:02:00,
2013-01-20 04:12:00,4.0,1.0,-100.00,North,-999,-999.0,3.0,89,0.00,,,-99.99,0.000000,,2013-01-20 11:12:00,
2013-01-20 04:22:00,4.0,1.0,-100.00,North,-999,-999.0,3.0,89,0.00,,,-99.99,0.000000,,2013-01-20 11:22:00,
2013-01-20 04:32:00,4.0,1.0,-100.00,North,-999,-999.0,3.0,89,0.00,,,-99.99,0.000000,,2013-01-20 11:32:00,
2013-01-20 04:42:00,4.0,1.0,-100.00,North,-999,-999.0,3.0,89,0.00,,,-99.99,0.000000,,2013-01-20 11:42:00,
2013-01-20 05:23:00,4.0,2.0,-100.00,North,-999,-999.0,4.0,90,0.00,,,-99.99,0.000000,,2013-01-20 12:23:00,
2013-01-20 05:33:00,3.0,0.0,-100.00,North,-999,-999.0,3.0,86,0.00,,,-99.99,0.000000,,2013-01-20 12:33:00,
2013-01-20 05:43:00,1.0,-2.0,-100.00,North,-999,-999.0,2.0,87,0.00,,,-99.99,0.000000,,2013-01-20 12:43:00,
2013-01-20 05:53:00,1.0,-2.0,-100.00,North,-999,-999.0,0.0,87,0.00,,,-99.99,0.000000,,2013-01-20 12:53:00,
2013-01-20 06:02:00,1.0,-2.0,-100.00,North,-999,-999.0,0.0,88,0.00,,,-99.99,0.000000,,2013-01-20 13:02:00,
2013-01-20 06:12:00,1.0,-2.0,-100.00,North,-999,-999.0,0.0,87,0.00,,,-99.99,0.000000,,2013-01-20 13:12:00,
2013-01-20 06:22:00,2.0,-1.0,-100.00,North,-999,-999.0,3.0,88,0.00,,,-99.99,0.000000,,2013-01-20 13:22:00,
2013-01-20 06:32:00,1.0,-2.0,-100.00,North,-999,-999.0,3.0,87,0.00,,,-99.99,0.000000,,2013-01-20 13:32:00,
2013-01-20 06:42:00,1.0,-2.0,-100.00,North,-999,-999.0,2.0,87,0.00,,,-99.99,0.000000,,2013-01-20 13:42:00,
2013-01-20 06:52:00,0.0,-3.0,-100.00,North,-999,-999.0,1.0,86,0.00,,,-99.99,0.000000,,2013-01-20 13:52:00,
2013-01-20 07:02:00,0.0,-2.0,-100.00,North,-999,-999.0,2.0,88,0.00,,,-99.99,0.000000,,2013-01-20 14:02:00,
2013-01-20 07:12:00,1.0,-2.0,-100.00,North,-999,-999.0,2.0,87,0.00,,,-99.99,0.000000,,2013-01-20 14:12:00,
2013-01-20 07:22:00,2.0,-1.0,-100.00,North,-999,-999.0,2.0,88,0.00,,,-99.99,0.000000,,2013-01-20 14:22:00,
2013-01-20 07:32:00,2.0,-1.0,-100.00,North,-999,-999.0,3.0,88,0.00,,,-99.99,0.000000,,2013-01-20 14:32:00,
2013-01-20 07:42:00,0.0,-3.0,-100.00,North,-999,-999.0,3.0,86,0.00,,,-99.99,0.000000,,2013-01-20 14:42:00,
2013-01-20 07:52:00,0.0,-4.0,-100.00,North,-999,-999.0,3.0,86,0.00,,,-99.99,1.000000,,2013-01-20 14:52:00,
2013-01-20 08:02:00,2.0,-1.0,-100.00,North,-999,-999.0,3.0,89,0.00,,,-99.99,3.000000,,2013-01-20 15:02:00,
2013-01-20 08:12:00,2.0,-1.0,-100.00,North,-999,-999.0,3.0,87,0.00,,,-99.99,7.000000,,2013-01-20 15:12:00,
2013-01-20 08:22:00,3.0,0.0,-100.00,North,-999,-999.0,3.0,89,0.00,,,-99.99,10.000000,,2013-01-20 15:22:00,
2013-01-20 08:32:00,4.0,0.0,-100.00,North,-999,-999.0,4.0,86,0.00,,,-99.99,13.000000,,2013-01-20 15:32:00,
2013-01-20 08:42:00,5.0,3.0,-100.00,North,-999,-999.0,4.0,92,0.00,,,-99.99,16.000000,,2013-01-20 15:42:00,
2013-01-20 08:50:00,2.0,-1.0,-100.00,North,-999,-999.0,3.0,88,0.00,,,-99.99,88.000000,,2013-01-20 15:50:00,
2013-01-20 08:52:00,2.0,-1.0,-100.00,North,-999,-999.0,4.0,86,0.00,,,-99.99,25.000000,,2013-01-20 15:52:00,
2013-01-20 09:02:00,1.0,-2.0,-100.00,North,-999,-999.0,3.0,87,0.00,,,-99.99,60.000000,,2013-01-20 16:02:00,
2013-01-20 09:11:00,2.0,-1.0,-100.00,North,-999,-999.0,3.0,88,0.00,,,-99.99,88.000000,,2013-01-20 16:11:00,
2013-01-20 09:22:00,2.0,-1.0,-100.00,North,-999,-999.0,3.0,88,0.00,,,-99.99,88.000000,,2013-01-20 16:22:00,
2013-01-20 09:32:00,2.0,-1.0,-100.00,North,-999,-999.0,3.0,88,0.00,,,-99.99,88.000000,,2013-01-20 16:32:00,
2013-01-20 09:42:00,2.0,-1.0,-100.00,North,-999,-999.0,3.0,88,0.00,,,-99.99,88.000000,,2013-01-20 16:42:00,
2013-01-20 10:23:00,6.0,3.0,-100.00,North,-999,-999.0,3.0,89,0.00,,,-99.99,292.000000,,2013-01-20 17:23:00,
2013-01-20 10:33:00,8.0,5.0,-100.00,North,-999,-999.0,3.0,88,0.00,,,-99.99,319.000000,,2013-01-20 17:33:00,
2013-01-20 10:43:00,10.0,8.0,-100.00,North,-999,-999.0,2.0,92,0.00,,,-99.99,343.000000,,2013-01-20 17:43:00,
2013-01-20 10:53:00,13.0,10.0,-100.00,North,-999,-999.0,0.0,91,0.00,,,-99.99,370.000000,,2013-01-20 17:53:00,
2013-01-20 11:02:00,11.0,8.0,-100.00,North,-999,-999.0,2.0,87,0.00,,,-99.99,383.000000,,2013-01-20 18:02:00,
2013-01-20 11:12:00,14.0,11.0,-100.00,North,-999,-999.0,2.0,90,0.00,,,-99.99,415.000000,,2013-01-20 18:12:00,
2013-01-20 11:22:00,12.0,8.0,-100.00,North,-999,-999.0,2.0,85,0.00,,,-99.99,421.000000,,2013-01-20 18:22:00,
2013-01-20 11:33:00,10.0,6.0,-100.00,North,-999,-999.0,4.0,84,0.00,,,-99.99,431.000000,,2013-01-20 18:33:00,
2013-01-20 11:42:00,10.0,6.0,-100.00,North,-999,-999.0,4.0,83,0.00,,,-99.99,444.000000,,2013-01-20 18:42:00,
2013-01-20 11:52:00,11.0,7.0,-100.00,North,-999,-999.0,3.0,83,0.00,,,-99.99,444.000000,,2013-01-20 18:52:00,
2013-01-20 12:02:00,11.0,6.0,-100.00,North,-999,-999.0,3.0,77,0.00,,,-99.99,447.000000,,2013-01-20 19:02:00,
2013-01-20 12:12:00,11.0,5.0,-100.00,North,-999,-999.0,6.0,75,0.00,,,-99.99,448.000000,,2013-01-20 19:12:00,
2013-01-20 12:22:00,12.0,6.0,-100.00,North,-999,-999.0,5.0,76,0.00,,,-99.99,452.000000,,2013-01-20 19:22:00,
2013-01-20 12:33:00,18.0,10.0,-100.00,North,-999,-999.0,2.0,70,0.00,,,-99.99,454.000000,,2013-01-20 19:33:00,
2013-01-20 12:42:00,17.0,9.0,-100.00,North,-999,-999.0,3.0,71,0.00,,,-99.99,454.000000,,2013-01-20 19:42:00,
2013-01-20 12:52:00,16.0,6.0,-100.00,North,-999,-999.0,3.0,64,0.00,,,-99.99,465.000000,,2013-01-20 19:52:00,
2013-01-20 13:02:00,14.0,6.0,-100.00,North,-999,-999.0,4.0,70,0.00,,,-99.99,467.000000,,2013-01-20 20:02:00,
2013-01-20 13:12:00,16.0,7.0,-100.00,North,-999,-999.0,3.0,66,0.00,,,-99.99,479.000000,,2013-01-20 20:12:00,
2013-01-20 13:22:00,19.0,7.0,-100.00,North,-999,-999.0,3.0,59,0.00,,,-99.99,493.000000,,2013-01-20 20:22:00,
2013-01-20 13:32:00,19.0,7.0,-100.00,North,-999,-999.0,3.0,59,0.00,,,-99.99,493.000000,,2013-01-20 20:32:00,
2013-01-20 13:42:00,14.0,6.0,-100.00,North,-999,-999.0,6.0,68,0.00,,,-99.99,542.000000,,2013-01-20 20:42:00,
2013-01-20 13:50:00,14.0,7.0,-100.00,North,-999,-999.0,6.0,71,0.00,,,-99.99,552.000000,,2013-01-20 20:50:00,
2013-01-20 13:52:00,14.0,6.0,-100.00,North,-999,-999.0,6.0,70,0.00,,,-99.99,562.000000,,2013-01-20 20:52:00,
2013-01-20 14:03:00,16.0,7.0,-100.00,North,-999,-999.0,4.0,65,0.00,,,-99.99,568.000000,,2013-01-20 21:03:00,
2013-01-20 14:12:00,14.0,7.0,-100.00,North,-999,-999.0,6.0,71,0.00,,,-99.99,552.000000,,2013-01-20 21:12:00,
2013-01-20 14:22:00,14.0,7.0,-100.00,North,-999,-999.0,6.0,71,0.00,,,-99.99,552.000000,,2013-01-20 21:22:00,
2013-01-20 14:33:00,14.0,7.0,-100.00,North,-999,-999.0,6.0,71,0.00,,,-99.99,552.000000,,2013-01-20 21:33:00,
2013-01-20 14:42:00,14.0,7.0,-100.00,North,-999,-999.0,6.0,71,0.00,,,-99.99,552.000000,,2013-01-20 21:42:00,
2013-01-20 15:23:00,17.0,8.0,-100.00,North,-999,-999.0,4.0,68,0.00,,,-99.99,395.000000,,2013-01-20 22:23:00,
2013-01-20 15:33:00,18.0,7.0,-100.00,North,-999,-999.0,4.0,62,0.00,,,-99.99,366.000000,,2013-01-20 22:33:00,
2013-01-20 15:43:00,18.0,9.0,-100.00,North,-999,-999.0,4.0,67,0.00,,,-99.99,346.000000,,2013-01-20 22:43:00,
2013-01-20 15:53:00,17.0,7.0,-100.00,North,-999,-999.0,3.0,65,0.00,,,-99.99,322.000000,,2013-01-20 22:53:00,
2013-01-20 16:02:00,17.0,8.0,-100.00,North,-999,-999.0,3.0,67,0.00,,,-99.99,290.000000,,2013-01-20 23:02:00,
2013-01-20 16:12:00,20.0,9.0,-100.00,North,-999,-999.0,1.0,62,0.00,,,-99.99,261.000000,,2013-01-20 23:12:00,
2013-01-20 16:22:00,21.0,8.0,-100.00,North,-999,-999.0,2.0,57,0.00,,,-99.99,236.000000,,2013-01-20 23:22:00,
2013-01-20 16:33:00,20.0,8.0,-100.00,North,-999,-999.0,2.0,59,0.00,,,-99.99,204.000000,,2013-01-20 23:33:00,
2013-01-20 16:42:00,19.0,9.0,-100.00,North,-999,-999.0,2.0,65,0.00,,,-99.99,173.000000,,2013-01-20 23:42:00,
2013-01-20 16:52:00,20.0,8.0,-100.00,North,-999,-999.0,1.0,60,0.00,,,-99.99,147.000000,,2013-01-20 23:52:00,
2013-01-20 17:02:00,17.0,8.0,-100.00,North,-999,-999.0,2.0,67,0.00,,,-99.99,118.000000,,2013-01-21 00:02:00,
2013-01-20 17:12:00,16.0,8.0,-100.00,North,-999,-999.0,3.0,70,0.00,,,-99.99,85.000000,,2013-01-21 00:12:00,
2013-01-20 17:22:00,15.0,7.0,-100.00,North,-999,-999.0,2.0,71,0.00,,,-99.99,61.000000,,2013-01-21 00:22:00,
2013-01-20 17:32:00,14.0,7.0,-100.00,North,-999,-999.0,2.0,74,0.00,,,-99.99,35.000000,,2013-01-21 00:32:00,
2013-01-20 17:42:00,12.0,6.0,-100.00,North,-999,-999.0,3.0,75,0.00,,,-99.99,14.000000,,2013-01-21 00:42:00,
2013-01-20 17:52:00,12.0,6.0,-100.00,North,-999,-999.0,3.0,75,0.00,,,-99.99,14.000000,,2013-01-21 00:52:00,
2013-01-20 18:02:00,10.0,5.0,-100.00,North,-999,-999.0,3.0,79,0.00,,,-99.99,3.000000,,2013-01-21 01:02:00,
2013-01-20 18:12:00,9.0,5.0,-100.00,North,-999,-999.0,4.0,82,0.00,,,-99.99,1.000000,,2013-01-21 01:12:00,
2013-01-20 18:22:00,10.0,6.0,-100.00,North,-999,-999.0,4.0,84,0.00,,,-99.99,0.000000,,2013-01-21 01:22:00,
2013-01-20 18:32:00,8.0,4.0,-100.00,North,-999,-999.0,2.0,82,0.00,,,-99.99,0.000000,,2013-01-21 01:32:00,
2013-01-20 18:42:00,8.0,5.0,-100.00,North,-999,-999.0,3.0,86,0.00,,,-99.99,0.000000,,2013-01-21 01:42:00,
2013-01-20 18:50:00,7.0,4.0,-100.00,North,-999,-999.0,3.0,88,0.00,,,-99.99,0.000000,,2013-01-21 01:50:00,
2013-01-20 18:52:00,8.0,5.0,-100.00,North,-999,-999.0,2.0,86,0.00,,,-99.99,0.000000,,2013-01-21 01:52:00,
2013-01-20 19:02:00,7.0,4.0,-100.00,North,-999,-999.0,3.0,86,0.00,,,-99.99,0.000000,,2013-01-21 02:02:00,
2013-01-20 19:12:00,7.0,4.0,-100.00,North,-999,-999.0,3.0,88,0.00,,,-99.99,0.000000,,2013-01-21 02:12:00,
2013-01-20 19:22:00,7.0,4.0,-100.00,North,-999,-999.0,3.0,88,0.00,,,-99.99,0.000000,,2013-01-21 02:22:00,
2013-01-20 19:32:00,7.0,4.0,-100.00,North,-999,-999.0,3.0,88,0.00,,,-99.99,0.000000,,2013-01-21 02:32:00,
2013-01-20 19:42:00,7.0,4.0,-100.00,North,-999,-999.0,3.0,88,0.00,,,-99.99,0.000000,,2013-01-21 02:42:00,
2013-01-20 20:23:00,8.0,5.0,-100.00,North,-999,-999.0,4.0,88,0.00,,,-99.99,0.000000,,2013-01-21 03:23:00,
2013-01-20 20:33:00,9.0,6.0,-100.00,North,-999,-999.0,3.0,88,0.00,,,-99.99,0.000000,,2013-01-21 03:33:00,
2013-01-20 20:43:00,8.0,5.0,-100.00,North,-999,-999.0,3.0,88,0.00,,,-99.99,0.000000,,2013-01-21 03:43:00,
2013-01-20 20:53:00,8.0,5.0,-100.00,North,-999,-999.0,3.0,88,0.00,,,-99.99,0.000000,,2013-01-21 03:53:00,
2013-01-20 21:02:00,8.0,5.0,-100.00,North,-999,-999.0,4.0,87,0.00,,,-99.99,0.000000,,2013-01-21 04:02:00,
2013-01-20 21:12:00,8.0,5.0,-100.00,North,-999,-999.0,3.0,88,0.00,,,-99.99,0.000000,,2013-01-21 04:12:00,
2013-01-20 21:22:00,8.0,5.0,-100.00,North,-999,-999.0,2.0,89,0.00,,,-99.99,0.000000,,2013-01-21 04:22:00,
2013-01-20 21:32:00,7.0,5.0,-100.00,North,-999,-999.0,1.0,88,0.00,,,-99.99,0.000000,,2013-01-21 04:32:00,
2013-01-20 21:42:00,7.0,5.0,-100.00,North,-999,-999.0,0.0,89,0.00,,,-99.99,0.000000,,2013-01-21 04:42:00,
2013-01-20 21:52:00,5.0,3.0,-100.00,North,-999,-999.0,4.0,90,0.00,,,-99.99,0.000000,,2013-01-21 04:52:00,
2013-01-20 22:03:00,6.0,4.0,-100.00,North,-999,-999.0,4.0,92,0.00,,,-99.99,0.000000,,2013-01-21 05:03:00,
2013-01-20 22:12:00,7.0,5.0,-100.00,North,-999,-999.0,3.0,91,0.00,,,-99.99,0.000000,,2013-01-21 05:12:00,
2013-01-20 22:22:00,6.0,4.0,-100.00,North,-999,-999.0,3.0,91,0.00,,,-99.99,0.000000,,2013-01-21 05:22:00,
2013-01-20 22:33:00,6.0,3.0,-100.00,North,-999,-999.0,4.0,90,0.00,,,-99.99,0.000000,,2013-01-21 05:33:00,
2013-01-20 22:42:00,7.0,5.0,-100.00,North,-999,-999.0,4.0,91,0.00,,,-99.99,0.000000,,2013-01-21 05:42:00,
2013-01-20 22:52:00,6.0,4.0,-100.00,North,-999,-999.0,4.0,90,0.00,,,-99.99,0.000000,,2013-01-21 05:52:00,
2013-01-20 23:02:00,7.0,5.0,-100.00,North,-999,-999.0,5.0,91,0.00,,,-99.99,0.000000,,2013-01-21 06:02:00,
2013-01-20 23:12:00,6.0,3.0,-100.00,North,-999,-999.0,4.0,87,0.00,,,-99.99,0.000000,,2013-01-21 06:12:00,
2013-01-20 23:22:00,6.0,3.0,-100.00,North,-999,-999.0,4.0,90,0.00,,,-99.99,0.000000,,2013-01-21 06:22:00,
2013-01-20 23:32:00,6.0,3.0,-100.00,North,-999,-999.0,4.0,90,0.00,,,-99.99,0.000000,,2013-01-21 06:32:00,
2013-01-20 23:42:00,5.0,2.0,-100.00,North,-999,-999.0,3.0,89,0.00,,,-99.99,0.000000,,2013-01-21 06:42:00,
2013-01-20 23:50:00,6.0,4.0,-100.00,North,-999,-999.0,4.0,90,0.00,,,-99.99,0.000000,,2013-01-21 06:50:00,
2013-01-20 23:52:00,5.0,3.0,-100.00,North,-999,-999.0,3.0,89,0.00,,,-99.99,0.000000,,2013-01-21 06:52:00,